Terminal Aerodrome Forecast
Issued by NWS

Home | Current Version | Previous Version | Text Only | Print | Product List | Glossary On
Versions: 1 2 3 4 5 6 7 8 9 10 11 12 13 14 15 16
000
FTUS42 KMLB 281120
TAFTIX
TAF
KTIX 281120Z 2812/2912 VRB04KT P6SM FEW050 BKN250
     FM281500 23006KT P6SM SCT035 SCT250
     FM282000 14009KT P6SM VCTS SCT040CB SCT250
     FM290000 16007KT P6SM SCT060 BKN250=

USA.gov is the U.S. government's official web portal to all federal, state and local government web resources and services.